Time;durP1;ratioP1;P1;durP2;ratioP2;P2;SDS_P1;SDS_P2;PMS_P1;PMS_P2;Temp;Humidity;BMP_temperature;BMP_pressure;BME280_temperature;BME280_humidity;BME280_pressure;Samples;Min_cycle;Max_cycle;Signal;HPM_P1;HPM_P2
2021/05/19 00:02:23;;;;;;;0.90;0.90;;;;;;;;;;5115507;28;20189;-42
2021/05/19 00:04:49;;;;;;;1.15;1.00;;;;;;;;;;5115224;28;20245;-41
2021/05/19 00:07:15;;;;;;;0.95;0.93;;;;;;;;;;5114960;28;20528;-41
2021/05/19 00:09:41;;;;;;;1.35;1.20;;;;;;;;;;5115713;28;20562;-42
2021/05/19 00:12:07;;;;;;;0.93;0.90;;;;;;;;;;5115580;28;20177;-42
2021/05/19 00:14:34;;;;;;;2.03;1.10;;;;;;;;;;5115762;28;20177;-42
2021/05/19 00:17:00;;;;;;;0.93;0.80;;;;;;;;;;5115736;28;20514;-42
2021/05/19 00:19:26;;;;;;;1.90;1.20;;;;;;;;;;5116155;28;20198;-42
2021/05/19 00:21:52;;;;;;;0.90;0.90;;;;;;;;;;5107392;28;20202;-42
2021/05/19 00:24:18;;;;;;;1.23;0.90;;;;;;;;;;5100529;28;20178;-42
2021/05/19 00:26:44;;;;;;;1.00;0.80;;;;;;;;;;5111366;28;20389;-41
2021/05/19 00:29:12;;;;;;;1.25;0.90;;;;;;;;;;5115299;28;20177;-42
2021/05/19 00:31:41;;;;;;;0.68;0.68;;;;;;;;;;5115121;28;20246;-42
2021/05/19 00:34:07;;;;;;;0.75;0.75;;;;;;;;;;5115354;28;20169;-42
2021/05/19 00:36:33;;;;;;;1.42;1.17;;;;;;;;;;5115516;28;20177;-41
2021/05/19 00:38:59;;;;;;;1.20;0.80;;;;;;;;;;5109262;28;20184;-41
2021/05/19 00:41:25;;;;;;;1.40;0.98;;;;;;;;;;5115051;28;20185;-41
2021/05/19 00:43:51;;;;;;;1.17;1.08;;;;;;;;;;5115436;28;20177;-42
2021/05/19 00:46:17;;;;;;;1.00;0.90;;;;;;;;;;5115348;28;20897;-42
2021/05/19 00:48:44;;;;;;;1.98;0.80;;;;;;;;;;5115312;28;20529;-42
2021/05/19 00:51:10;;;;;;;0.98;0.90;;;;;;;;;;5115035;28;20248;-42
2021/05/19 00:53:36;;;;;;;1.80;0.98;;;;;;;;;;5113720;28;20263;-42
2021/05/19 00:56:02;;;;;;;0.90;0.90;;;;;;;;;;5112138;28;20233;-42
2021/05/19 00:58:28;;;;;;;0.77;0.77;;;;;;;;;;5115330;28;20181;-42
2021/05/19 01:00:54;;;;;;;0.70;0.68;;;;;;;;;;5114673;28;20185;-42
2021/05/19 01:03:21;;;;;;;0.80;0.80;;;;;;;;;;5115144;28;20185;-42
2021/05/19 01:11:05;;;;;;;1.00;0.80;;;;;;;;;;5113775;28;20231;-42
2021/05/19 01:13:30;;;;;;;0.60;0.60;;;;;;;;;;5109330;28;20178;-42
2021/05/19 01:15:57;;;;;;;0.88;0.82;;;;;;;;;;5109191;28;20615;-42
2021/05/19 01:18:23;;;;;;;0.85;0.70;;;;;;;;;;5115182;28;20177;-42
2021/05/19 01:20:49;;;;;;;1.38;0.60;;;;;;;;;;5114470;28;20193;-42
2021/05/19 01:23:15;;;;;;;1.05;0.90;;;;;;;;;;5114387;28;20189;-42
2021/05/19 01:25:41;;;;;;;1.10;1.00;;;;;;;;;;5114551;28;20188;-42
2021/05/19 01:28:08;;;;;;;1.55;0.90;;;;;;;;;;5115169;28;20173;-42
2021/05/19 01:30:35;;;;;;;1.10;0.80;;;;;;;;;;5114299;28;20200;-42
2021/05/19 01:33:01;;;;;;;0.60;0.60;;;;;;;;;;5114980;28;20177;-42
2021/05/19 01:35:27;;;;;;;0.68;0.68;;;;;;;;;;5113971;28;20252;-42
2021/05/19 01:37:53;;;;;;;1.77;1.13;;;;;;;;;;5115175;28;20162;-42
2021/05/19 01:40:21;;;;;;;1.23;0.80;;;;;;;;;;5114513;28;20181;-42
2021/05/19 01:42:48;;;;;;;0.50;0.50;;;;;;;;;;5114799;28;20193;-41
2021/05/19 01:45:16;;;;;;;0.55;0.55;;;;;;;;;;5111146;28;20194;-41
2021/05/19 01:47:45;;;;;;;0.65;0.60;;;;;;;;;;5114730;28;20209;-41
2021/05/19 01:50:30;;;;;;;0.60;0.60;;;;;;;;;;5113992;28;20197;-41
2021/05/19 01:52:58;;;;;;;0.60;0.60;;;;;;;;;;5114440;28;20204;-41
2021/05/19 01:55:24;;;;;;;0.70;0.70;;;;;;;;;;5114691;28;20237;-41
2021/05/19 01:57:50;;;;;;;0.80;0.80;;;;;;;;;;5115029;28;20169;-41
2021/05/19 02:00:18;;;;;;;0.80;0.70;;;;;;;;;;5114725;28;20185;-41
2021/05/19 02:02:44;;;;;;;1.08;0.65;;;;;;;;;;5113499;28;20180;-42
2021/05/19 02:05:14;;;;;;;0.70;0.60;;;;;;;;;;5114005;28;20169;-42
2021/05/19 02:07:40;;;;;;;1.35;0.70;;;;;;;;;;5114244;28;20808;-42
2021/05/19 02:10:07;;;;;;;0.50;0.50;;;;;;;;;;5114457;28;20545;-41
2021/05/19 02:12:33;;;;;;;0.60;0.55;;;;;;;;;;5104555;28;20222;-41
2021/05/19 02:14:59;;;;;;;1.20;0.70;;;;;;;;;;5108956;28;20185;-42
2021/05/19 02:17:28;;;;;;;0.75;0.73;;;;;;;;;;5107955;28;20501;-41
2021/05/19 02:19:54;;;;;;;0.68;0.68;;;;;;;;;;5118136;28;20184;-42
2021/05/19 02:22:21;;;;;;;0.63;0.63;;;;;;;;;;5117649;28;20192;-42
2021/05/19 02:24:47;;;;;;;0.60;0.60;;;;;;;;;;5117552;28;20184;-42
2021/05/19 02:27:13;;;;;;;0.60;0.60;;;;;;;;;;5107098;28;20209;-41
2021/05/19 02:29:39;;;;;;;0.77;0.77;;;;;;;;;;5117346;28;20256;-41
2021/05/19 02:32:05;;;;;;;0.63;0.63;;;;;;;;;;5117574;28;20536;-41
2021/05/19 02:34:31;;;;;;;0.60;0.60;;;;;;;;;;5117513;28;20177;-41
2021/05/19 02:36:57;;;;;;;0.70;0.70;;;;;;;;;;5117985;28;20181;-41
2021/05/19 02:39:23;;;;;;;0.80;0.70;;;;;;;;;;5117802;28;20178;-41
2021/05/19 02:41:49;;;;;;;0.60;0.60;;;;;;;;;;5113994;28;20189;-41
2021/05/19 02:44:16;;;;;;;0.70;0.70;;;;;;;;;;5117817;28;20173;-41
2021/05/19 02:46:42;;;;;;;0.95;0.70;;;;;;;;;;5117784;28;20193;-41
2021/05/19 02:49:08;;;;;;;0.52;0.50;;;;;;;;;;5117484;28;20236;-41
2021/05/19 02:51:35;;;;;;;0.50;0.50;;;;;;;;;;5117137;28;20209;-41
2021/05/19 02:54:01;;;;;;;0.60;0.60;;;;;;;;;;5115474;28;20568;-42
2021/05/19 02:56:27;;;;;;;0.65;0.65;;;;;;;;;;5117601;28;20216;-41
2021/05/19 02:58:54;;;;;;;0.73;0.73;;;;;;;;;;5117825;28;20217;-41
2021/05/19 03:01:20;;;;;;;0.52;0.50;;;;;;;;;;5117201;28;20196;-41
2021/05/19 03:03:46;;;;;;;0.63;0.55;;;;;;;;;;5117155;28;20250;-41
2021/05/19 03:06:12;;;;;;;0.63;0.60;;;;;;;;;;5117525;28;20292;-41
2021/05/19 03:08:38;;;;;;;0.68;0.60;;;;;;;;;;5114954;28;20180;-41
2021/05/19 03:11:05;;;;;;;0.63;0.63;;;;;;;;;;5116560;28;20177;-42
2021/05/19 03:13:31;;;;;;;0.88;0.68;;;;;;;;;;5117361;28;20458;-42
2021/05/19 03:15:57;;;;;;;0.52;0.52;;;;;;;;;;5116746;28;20173;-42
2021/05/19 03:18:23;;;;;;;0.85;0.55;;;;;;;;;;5117132;28;20198;-42
2021/05/19 03:20:49;;;;;;;0.70;0.60;;;;;;;;;;5116658;28;20195;-42
2021/05/19 03:23:15;;;;;;;0.47;0.47;;;;;;;;;;5107994;28;20177;-42
2021/05/19 03:25:42;;;;;;;0.85;0.52;;;;;;;;;;5106581;28;20186;-42
2021/05/19 03:28:08;;;;;;;0.60;0.60;;;;;;;;;;5096848;28;20237;-42
2021/05/19 03:30:34;;;;;;;0.60;0.60;;;;;;;;;;5096036;28;20268;-41
2021/05/19 03:33:00;;;;;;;0.57;0.50;;;;;;;;;;5110680;28;20181;-41
2021/05/19 03:35:26;;;;;;;0.52;0.52;;;;;;;;;;5115669;28;20184;-41
2021/05/19 03:37:52;;;;;;;0.47;0.47;;;;;;;;;;5116705;28;20177;-41
2021/05/19 03:40:18;;;;;;;0.85;0.70;;;;;;;;;;5116241;28;20209;-41
2021/05/19 03:42:44;;;;;;;0.60;0.60;;;;;;;;;;5115778;28;20181;-41
2021/05/19 03:45:13;;;;;;;0.70;0.70;;;;;;;;;;5116167;28;20562;-41
2021/05/19 03:47:40;;;;;;;0.80;0.60;;;;;;;;;;5116755;28;20211;-41
2021/05/19 03:50:07;;;;;;;1.38;0.80;;;;;;;;;;5115871;28;20175;-41
2021/05/19 03:52:33;;;;;;;0.73;0.60;;;;;;;;;;5115511;28;20234;-46
2021/05/19 03:54:59;;;;;;;0.68;0.68;;;;;;;;;;5115465;28;20519;-42
2021/05/19 03:57:25;;;;;;;0.45;0.45;;;;;;;;;;5116619;28;20238;-42
2021/05/19 03:59:51;;;;;;;0.80;0.60;;;;;;;;;;5116507;28;20491;-42
2021/05/19 04:02:17;;;;;;;4.75;0.90;;;;;;;;;;5115758;28;20192;-42
2021/05/19 04:04:43;;;;;;;9.10;1.38;;;;;;;;;;5114180;28;20204;-42
2021/05/19 04:07:10;;;;;;;6.15;1.27;;;;;;;;;;5112925;28;20205;-42
2021/05/19 04:09:36;;;;;;;4.43;1.15;;;;;;;;;;5114785;28;20187;-42
2021/05/19 04:12:03;;;;;;;6.53;1.05;;;;;;;;;;5114817;28;20181;-41
2021/05/19 04:14:29;;;;;;;2.42;1.10;;;;;;;;;;5114882;28;20467;-41
2021/05/19 04:16:55;;;;;;;6.72;1.25;;;;;;;;;;5114662;28;20169;-42
2021/05/19 04:19:21;;;;;;;2.05;0.90;;;;;;;;;;5115646;28;20252;-41
2021/05/19 04:21:47;;;;;;;4.03;1.15;;;;;;;;;;5115021;28;20560;-42
2021/05/19 04:24:13;;;;;;;4.90;1.45;;;;;;;;;;5115604;28;20453;-42
2021/05/19 04:26:39;;;;;;;4.20;1.23;;;;;;;;;;5115852;28;20239;-42
2021/05/19 04:29:05;;;;;;;7.28;1.13;;;;;;;;;;5115388;28;20172;-42
2021/05/19 04:31:32;;;;;;;5.90;1.25;;;;;;;;;;5104793;28;20185;-42
2021/05/19 04:33:58;;;;;;;2.88;1.20;;;;;;;;;;5100978;28;20177;-41
2021/05/19 04:36:24;;;;;;;5.07;1.08;;;;;;;;;;5097368;28;20515;-41
2021/05/19 04:38:50;;;;;;;5.78;1.27;;;;;;;;;;5115260;28;20203;-42
2021/05/19 04:41:16;;;;;;;2.63;0.85;;;;;;;;;;5115046;28;20560;-42
2021/05/19 04:43:43;;;;;;;4.22;1.13;;;;;;;;;;5115056;28;20260;-41
2021/05/19 04:46:09;;;;;;;2.50;1.10;;;;;;;;;;5097619;28;20213;-41
2021/05/19 04:48:35;;;;;;;2.72;1.10;;;;;;;;;;5095263;28;20241;-41
2021/05/19 04:51:01;;;;;;;1.58;1.10;;;;;;;;;;5105396;28;20264;-41
2021/05/19 04:53:27;;;;;;;2.97;1.10;;;;;;;;;;5109775;28;20446;-41
2021/05/19 04:55:53;;;;;;;2.85;1.02;;;;;;;;;;5115378;28;20169;-41
2021/05/19 04:58:24;;;;;;;3.65;1.17;;;;;;;;;;5114807;28;20169;-41
2021/05/19 05:00:50;;;;;;;2.13;1.15;;;;;;;;;;5114825;28;20237;-41
2021/05/19 05:03:18;;;;;;;2.03;0.90;;;;;;;;;;5114887;28;20169;-41
2021/05/19 05:05:44;;;;;;;1.98;0.93;;;;;;;;;;5112005;28;20165;-41
2021/05/19 05:08:10;;;;;;;2.55;0.70;;;;;;;;;;5111847;28;20551;-41
2021/05/19 05:10:36;;;;;;;5.20;1.30;;;;;;;;;;5114549;28;20498;-41
2021/05/19 05:13:02;;;;;;;2.17;0.90;;;;;;;;;;5106747;28;20540;-41
2021/05/19 05:15:28;;;;;;;1.88;0.70;;;;;;;;;;5114981;28;20208;-41
2021/05/19 05:17:54;;;;;;;4.72;1.38;;;;;;;;;;5106199;28;20182;-41
2021/05/19 05:20:21;;;;;;;2.72;1.20;;;;;;;;;;5109205;28;20685;-41
2021/05/19 05:22:48;;;;;;;2.17;0.88;;;;;;;;;;5111210;28;20173;-41
2021/05/19 05:25:14;;;;;;;1.58;0.88;;;;;;;;;;5114964;28;20176;-41
2021/05/19 05:27:41;;;;;;;2.95;1.08;;;;;;;;;;5110944;28;20210;-41
2021/05/19 05:30:07;;;;;;;1.40;0.88;;;;;;;;;;5105745;28;20256;-41
2021/05/19 05:32:33;;;;;;;1.88;0.82;;;;;;;;;;5097601;28;20219;-41
2021/05/19 05:34:59;;;;;;;1.50;1.10;;;;;;;;;;5094892;28;20182;-41
2021/05/19 05:37:25;;;;;;;1.35;1.00;;;;;;;;;;5111866;28;20209;-41
2021/05/19 05:39:51;;;;;;;1.38;0.80;;;;;;;;;;5110557;28;20181;-41
2021/05/19 05:42:17;;;;;;;1.38;0.85;;;;;;;;;;5101856;28;20181;-41
2021/05/19 05:44:43;;;;;;;1.10;0.82;;;;;;;;;;5107733;28;20185;-41
2021/05/19 05:47:09;;;;;;;2.53;0.90;;;;;;;;;;5115290;28;20213;-41
2021/05/19 05:49:35;;;;;;;1.35;0.80;;;;;;;;;;5118996;28;20188;-41
2021/05/19 05:52:01;;;;;;;2.25;1.00;;;;;;;;;;5118263;28;20177;-41
2021/05/19 05:54:27;;;;;;;1.35;0.95;;;;;;;;;;5117228;28;20173;-41
2021/05/19 05:56:55;;;;;;;2.05;0.90;;;;;;;;;;5118550;28;20264;-41
2021/05/19 05:59:21;;;;;;;1.83;1.02;;;;;;;;;;5118567;28;20173;-41
2021/05/19 06:01:47;;;;;;;1.45;0.70;;;;;;;;;;5118119;28;20177;-41
2021/05/19 06:04:12;;;;;;;2.40;0.85;;;;;;;;;;5118949;28;20222;-41
2021/05/19 06:06:39;;;;;;;1.38;0.90;;;;;;;;;;5117560;28;20540;-41
2021/05/19 06:09:06;;;;;;;2.10;0.73;;;;;;;;;;5101895;28;20209;-41
2021/05/19 06:11:32;;;;;;;1.05;0.70;;;;;;;;;;5109781;28;20215;-41
2021/05/19 06:14:01;;;;;;;1.38;0.80;;;;;;;;;;5114737;28;20179;-41
2021/05/19 06:16:27;;;;;;;0.88;0.70;;;;;;;;;;5112215;28;20566;-41
2021/05/19 06:18:53;;;;;;;1.27;0.85;;;;;;;;;;5111371;28;20228;-41
2021/05/19 06:21:19;;;;;;;2.40;0.80;;;;;;;;;;5110222;28;20185;-41
2021/05/19 06:23:45;;;;;;;2.80;0.70;;;;;;;;;;5118024;28;20157;-41
2021/05/19 06:26:12;;;;;;;3.03;1.05;;;;;;;;;;5117801;28;20205;-42
2021/05/19 06:28:37;;;;;;;2.13;0.70;;;;;;;;;;5117906;28;20173;-41
2021/05/19 06:31:04;;;;;;;2.03;0.90;;;;;;;;;;5116712;28;20184;-41
2021/05/19 06:33:30;;;;;;;1.92;0.82;;;;;;;;;;5115068;28;20199;-41
2021/05/19 06:35:56;;;;;;;0.73;0.63;;;;;;;;;;5114385;28;20185;-41
2021/05/19 06:38:22;;;;;;;1.05;0.73;;;;;;;;;;5117716;28;20177;-41
2021/05/19 06:40:49;;;;;;;0.82;0.70;;;;;;;;;;5117395;28;20210;-41
2021/05/19 06:43:15;;;;;;;1.85;0.80;;;;;;;;;;5117587;28;20568;-41
2021/05/19 06:45:41;;;;;;;1.38;0.73;;;;;;;;;;5117935;28;20184;-41
2021/05/19 06:48:07;;;;;;;2.33;0.73;;;;;;;;;;5115242;28;20448;-41
2021/05/19 06:50:33;;;;;;;1.17;0.75;;;;;;;;;;5109804;28;20192;-41
2021/05/19 06:52:59;;;;;;;0.80;0.80;;;;;;;;;;5109212;28;20191;-41
2021/05/19 06:55:26;;;;;;;2.42;1.08;;;;;;;;;;5107841;28;20275;-41
2021/05/19 06:57:52;;;;;;;0.95;0.90;;;;;;;;;;5115298;28;20172;-41
2021/05/19 07:00:18;;;;;;;1.02;0.90;;;;;;;;;;5116827;28;20169;-41
2021/05/19 07:02:44;;;;;;;0.90;0.90;;;;;;;;;;5117213;28;20184;-41
2021/05/19 07:05:11;;;;;;;0.88;0.82;;;;;;;;;;5104557;28;20170;-41
2021/05/19 07:07:38;;;;;;;1.73;1.00;;;;;;;;;;5108134;28;20189;-41
2021/05/19 07:10:06;;;;;;;0.90;0.80;;;;;;;;;;5115960;28;20489;-41
2021/05/19 07:12:32;;;;;;;1.38;1.00;;;;;;;;;;5103134;28;20178;-41
2021/05/19 07:15:01;;;;;;;0.80;0.75;;;;;;;;;;5114704;28;20196;-42
2021/05/19 07:17:28;;;;;;;3.15;0.85;;;;;;;;;;5116896;28;20177;-41
2021/05/19 07:19:54;;;;;;;0.80;0.80;;;;;;;;;;5115236;28;20223;-41
2021/05/19 07:22:20;;;;;;;2.15;0.65;;;;;;;;;;5106685;28;20468;-41
2021/05/19 07:24:48;;;;;;;1.70;0.80;;;;;;;;;;5105303;28;20182;-41
2021/05/19 07:27:14;;;;;;;4.50;0.80;;;;;;;;;;5115488;28;20198;-41
2021/05/19 07:29:40;;;;;;;2.97;1.05;;;;;;;;;;5116522;28;20188;-41
2021/05/19 07:32:06;;;;;;;0.70;0.70;;;;;;;;;;5115990;28;20177;-41
2021/05/19 07:34:33;;;;;;;1.85;0.90;;;;;;;;;;5115916;28;20173;-41
2021/05/19 07:36:59;;;;;;;4.68;0.90;;;;;;;;;;5114755;28;20195;-41
2021/05/19 07:39:25;;;;;;;3.10;0.80;;;;;;;;;;5116695;28;20165;-41
2021/05/19 07:41:51;;;;;;;1.38;0.70;;;;;;;;;;5115000;28;20177;-41
2021/05/19 07:44:17;;;;;;;1.30;0.90;;;;;;;;;;5114980;28;20165;-41
2021/05/19 07:46:43;;;;;;;1.13;0.80;;;;;;;;;;5111528;28;20506;-41
2021/05/19 07:49:09;;;;;;;0.85;0.80;;;;;;;;;;5116326;28;20205;-41
2021/05/19 07:51:35;;;;;;;2.50;0.70;;;;;;;;;;5116106;28;20173;-41
2021/05/19 07:54:02;;;;;;;1.90;0.95;;;;;;;;;;5109841;28;20191;-41
2021/05/19 07:59:16;;;;;;;3.85;1.10;;;;;;;;;;5115826;28;20188;-41
2021/05/19 08:02:01;;;;;;;2.33;1.50;;;;;;;;;;5114818;28;20176;-41
2021/05/19 08:04:27;;;;;;;0.90;0.90;;;;;;;;;;5114459;28;20183;-41
2021/05/19 08:06:52;;;;;;;1.90;1.00;;;;;;;;;;5115893;28;20201;-41
2021/05/19 08:09:18;;;;;;;4.05;0.85;;;;;;;;;;5112236;28;20184;-41
2021/05/19 08:11:44;;;;;;;0.60;0.60;;;;;;;;;;5115401;28;20230;-41
2021/05/19 08:14:11;;;;;;;2.72;0.80;;;;;;;;;;5115758;28;20244;-41
2021/05/19 08:16:37;;;;;;;2.47;0.85;;;;;;;;;;5116313;28;20624;-41
2021/05/19 08:19:03;;;;;;;0.77;0.77;;;;;;;;;;5115301;28;20247;-41
2021/05/19 08:21:29;;;;;;;1.13;0.88;;;;;;;;;;5115383;28;20189;-41
2021/05/19 08:23:55;;;;;;;1.10;1.00;;;;;;;;;;5116209;28;20226;-41
2021/05/19 08:26:21;;;;;;;2.38;1.10;;;;;;;;;;5103745;28;20208;-41
2021/05/19 08:28:49;;;;;;;1.83;1.30;;;;;;;;;;5107731;28;20592;-41
2021/05/19 08:31:18;;;;;;;2.53;1.30;;;;;;;;;;5115643;28;20158;-41
2021/05/19 08:33:44;;;;;;;2.15;1.13;;;;;;;;;;5115860;28;20161;-41
2021/05/19 08:36:11;;;;;;;5.93;1.40;;;;;;;;;;5116032;28;20187;-41
2021/05/19 08:38:38;;;;;;;3.22;1.10;;;;;;;;;;5115971;28;20172;-41
2021/05/19 08:41:07;;;;;;;2.90;1.30;;;;;;;;;;5112975;28;20166;-41
2021/05/19 08:43:33;;;;;;;1.58;1.35;;;;;;;;;;5103989;28;20190;-41
2021/05/19 08:46:00;;;;;;;2.05;1.08;;;;;;;;;;5108533;28;20264;-41
2021/05/19 08:48:26;;;;;;;3.72;1.40;;;;;;;;;;5115708;28;20236;-41
2021/05/19 08:50:52;;;;;;;1.85;1.20;;;;;;;;;;5114931;28;20533;-41
2021/05/19 08:53:18;;;;;;;1.63;1.50;;;;;;;;;;5113595;28;20268;-41
2021/05/19 08:55:44;;;;;;;2.08;1.50;;;;;;;;;;5115379;28;20249;-41
2021/05/19 08:58:10;;;;;;;1.30;1.20;;;;;;;;;;5114963;28;20586;-41
2021/05/19 09:00:36;;;;;;;1.52;1.23;;;;;;;;;;5114842;28;20624;-41
2021/05/19 09:03:12;;;;;;;7.70;2.15;;;;;;;;;;5115311;28;20295;-41
2021/05/19 09:05:39;;;;;;;4.15;2.20;;;;;;;;;;5095112;28;20414;-41
2021/05/19 09:08:09;;;;;;;6.05;2.60;;;;;;;;;;5094902;28;20193;-41
2021/05/19 09:10:36;;;;;;;4.70;2.92;;;;;;;;;;5094578;28;20183;-41
2021/05/19 09:13:02;;;;;;;5.25;2.50;;;;;;;;;;5094799;28;20322;-41
2021/05/19 09:15:45;;;;;;;3.55;2.10;;;;;;;;;;5111900;28;20169;-41
2021/05/19 09:18:11;;;;;;;4.75;2.33;;;;;;;;;;5115321;28;20204;-41
2021/05/19 09:20:47;;;;;;;4.07;2.25;;;;;;;;;;5114438;28;20196;-41
2021/05/19 09:23:19;;;;;;;3.55;2.00;;;;;;;;;;5117464;28;20173;-41
2021/05/19 09:25:45;;;;;;;3.42;2.13;;;;;;;;;;5119579;28;20169;-41
2021/05/19 09:28:23;;;;;;;1.95;1.75;;;;;;;;;;5119510;28;20208;-41
2021/05/19 09:30:49;;;;;;;3.83;2.03;;;;;;;;;;5117271;28;20487;-41
2021/05/19 09:33:23;;;;;;;4.13;1.98;;;;;;;;;;5119041;28;20172;-41
2021/05/19 09:36:08;;;;;;;3.90;2.80;;;;;;;;;;5119263;28;20165;-41
2021/05/19 09:38:34;;;;;;;2.97;1.95;;;;;;;;;;5118513;28;20495;-41
2021/05/19 09:41:15;;;;;;;5.90;2.30;;;;;;;;;;5110989;28;20166;-41
2021/05/19 09:43:41;;;;;;;2.72;1.90;;;;;;;;;;5118503;28;20531;-41
2021/05/19 09:46:20;;;;;;;4.10;2.25;;;;;;;;;;5118687;28;20176;-41
2021/05/19 09:48:47;;;;;;;3.88;2.13;;;;;;;;;;5101780;28;20169;-41
2021/05/19 09:51:26;;;;;;;3.28;1.92;;;;;;;;;;5115051;28;20173;-41
2021/05/19 09:53:52;;;;;;;2.83;1.90;;;;;;;;;;5119077;28;20169;-41
2021/05/19 09:56:18;;;;;;;2.42;1.80;;;;;;;;;;5117098;28;20181;-41
2021/05/19 09:58:46;;;;;;;3.65;2.40;;;;;;;;;;5117533;28;20192;-41
2021/05/19 10:01:12;;;;;;;2.75;1.83;;;;;;;;;;5113484;28;20199;-41
2021/05/19 10:03:38;;;;;;;3.83;2.22;;;;;;;;;;5101631;28;20232;-41
2021/05/19 10:06:24;;;;;;;2.47;1.70;;;;;;;;;;5116530;28;20213;-41
2021/05/19 10:08:51;;;;;;;4.07;2.25;;;;;;;;;;5118387;28;20225;-41
2021/05/19 10:11:18;;;;;;;3.20;1.98;;;;;;;;;;5117686;28;20174;-41
2021/05/19 10:13:45;;;;;;;3.38;1.80;;;;;;;;;;5118160;28;20176;-41
2021/05/19 10:16:14;;;;;;;3.90;1.88;;;;;;;;;;5118014;28;20188;-41
2021/05/19 10:18:50;;;;;;;2.67;1.90;;;;;;;;;;5117590;28;20197;-41
2021/05/19 10:21:17;;;;;;;2.70;2.15;;;;;;;;;;5099170;28;20189;-41
2021/05/19 10:24:02;;;;;;;2.65;1.80;;;;;;;;;;5118504;28;20238;-41
2021/05/19 10:26:29;;;;;;;2.42;1.80;;;;;;;;;;5117520;28;20291;-41
2021/05/19 10:28:55;;;;;;;2.13;1.80;;;;;;;;;;5110590;28;20311;-41
2021/05/19 10:31:32;;;;;;;2.92;2.17;;;;;;;;;;5117762;28;20174;-41
2021/05/19 10:34:01;;;;;;;3.90;1.80;;;;;;;;;;5099329;28;20478;-41
2021/05/19 10:36:33;;;;;;;5.18;2.10;;;;;;;;;;5112040;28;20189;-41
2021/05/19 10:39:09;;;;;;;3.38;2.05;;;;;;;;;;5117933;28;20444;-41
2021/05/19 10:41:35;;;;;;;2.53;1.63;;;;;;;;;;5117213;28;20169;-41
2021/05/19 10:44:05;;;;;;;3.63;1.80;;;;;;;;;;5117658;28;20583;-41
2021/05/19 10:46:47;;;;;;;2.95;1.80;;;;;;;;;;5117405;28;20235;-45
2021/05/19 10:49:13;;;;;;;2.25;1.65;;;;;;;;;;5116300;28;20569;-41
2021/05/19 10:51:43;;;;;;;2.90;1.88;;;;;;;;;;5114218;28;20209;-41
2021/05/19 11:02:53;;;;;;;1.98;1.70;;;;;;;;;;5109777;28;20272;-41
2021/05/19 11:05:20;;;;;;;2.08;1.42;;;;;;;;;;5105927;28;20173;-41
2021/05/19 11:08:12;;;;;;;2.38;1.45;;;;;;;;;;5108570;28;20212;-41
2021/05/19 11:10:49;;;;;;;2.30;1.65;;;;;;;;;;5107667;28;20548;-41
2021/05/19 11:13:16;;;;;;;3.08;1.70;;;;;;;;;;5110907;28;20540;-41
2021/05/19 11:21:14;;;;;;;2.67;1.70;;;;;;;;;;5115897;28;20189;-41
2021/05/19 11:23:40;;;;;;;1.73;1.30;;;;;;;;;;5109858;28;20202;-41
2021/05/19 11:26:10;;;;;;;4.38;1.58;;;;;;;;;;5109285;28;20277;-41
2021/05/19 11:28:36;;;;;;;2.15;1.50;;;;;;;;;;5098867;28;20169;-41
2021/05/19 11:31:11;;;;;;;3.10;1.58;;;;;;;;;;5115737;28;20214;-41
2021/05/19 11:33:51;;;;;;;1.83;1.60;;;;;;;;;;5116106;28;20195;-41
2021/05/19 11:36:29;;;;;;;2.65;1.45;;;;;;;;;;5116908;28;20197;-41
2021/05/19 11:38:55;;;;;;;3.78;1.58;;;;;;;;;;5116657;28;20176;-41
2021/05/19 11:41:22;;;;;;;3.17;1.48;;;;;;;;;;5103752;28;20177;-41
2021/05/19 11:43:48;;;;;;;1.92;1.45;;;;;;;;;;5116398;28;20199;-41
2021/05/19 11:46:14;;;;;;;1.02;1.02;;;;;;;;;;5115594;28;20279;-41
2021/05/19 11:48:40;;;;;;;3.17;1.20;;;;;;;;;;5111339;28;20260;-41
2021/05/19 11:51:22;;;;;;;3.47;1.58;;;;;;;;;;5116266;28;20221;-41
2021/05/19 11:54:02;;;;;;;2.75;1.50;;;;;;;;;;5101034;28;20215;-41
2021/05/19 11:56:47;;;;;;;4.85;1.15;;;;;;;;;;5114273;28;20828;-41
2021/05/19 11:59:17;;;;;;;2.58;1.50;;;;;;;;;;5116283;28;20222;-41
2021/05/19 12:01:53;;;;;;;2.17;1.60;;;;;;;;;;5115794;28;20221;-41
2021/05/19 12:04:20;;;;;;;2.20;1.30;;;;;;;;;;5116090;28;20173;-42
2021/05/19 12:06:47;;;;;;;2.90;1.17;;;;;;;;;;5115843;28;20201;-42
2021/05/19 12:09:13;;;;;;;1.67;1.25;;;;;;;;;;5116227;28;20194;-42
2021/05/19 12:11:39;;;;;;;3.03;1.35;;;;;;;;;;5114472;28;20173;-42
2021/05/19 12:14:06;;;;;;;3.88;1.23;;;;;;;;;;5107034;28;20180;-41
2021/05/19 12:16:36;;;;;;;1.70;1.20;;;;;;;;;;5114880;28;20233;-41
2021/05/19 12:19:07;;;;;;;3.35;1.08;;;;;;;;;;5115934;28;20750;-41
2021/05/19 12:21:33;;;;;;;3.15;1.30;;;;;;;;;;5115364;28;20188;-41
2021/05/19 12:24:00;;;;;;;3.55;1.02;;;;;;;;;;5115475;28;20197;-41
2021/05/19 12:26:26;;;;;;;4.13;0.90;;;;;;;;;;5115056;28;20754;-41
2021/05/19 12:28:52;;;;;;;0.98;0.95;;;;;;;;;;5113634;28;20479;-41
2021/05/19 12:31:25;;;;;;;1.30;1.00;;;;;;;;;;5115022;28;20188;-41
2021/05/19 12:33:51;;;;;;;2.22;1.02;;;;;;;;;;5115505;28;20184;-41
2021/05/19 12:36:44;;;;;;;2.45;0.90;;;;;;;;;;5113353;28;20686;-41
2021/05/19 12:39:09;;;;;;;2.55;1.00;;;;;;;;;;5093991;28;20591;-42
2021/05/19 12:41:44;;;;;;;0.63;0.63;;;;;;;;;;5114642;28;20177;-41
2021/05/19 12:44:11;;;;;;;1.15;0.70;;;;;;;;;;5114210;28;20255;-41
2021/05/19 12:46:37;;;;;;;2.08;0.60;;;;;;;;;;5115047;28;20468;-41
2021/05/19 12:49:10;;;;;;;1.90;1.02;;;;;;;;;;5097443;28;20172;-41
2021/05/19 12:51:52;;;;;;;1.30;0.73;;;;;;;;;;5114838;28;20169;-41
2021/05/19 12:54:21;;;;;;;1.58;0.85;;;;;;;;;;5115554;28;20203;-41
2021/05/19 12:56:58;;;;;;;2.40;0.70;;;;;;;;;;5097253;28;20272;-41
2021/05/19 12:59:24;;;;;;;3.08;0.80;;;;;;;;;;5115172;28;20432;-41
2021/05/19 13:01:50;;;;;;;4.88;0.60;;;;;;;;;;5105321;28;20200;-42
2021/05/19 13:04:17;;;;;;;1.15;0.70;;;;;;;;;;5098042;28;20563;-42
2021/05/19 13:06:43;;;;;;;0.93;0.70;;;;;;;;;;5114918;28;20293;-42
2021/05/19 13:09:13;;;;;;;4.20;0.85;;;;;;;;;;5115089;28;20188;-43
2021/05/19 13:12:01;;;;;;;3.33;1.00;;;;;;;;;;5114016;28;20284;-41
2021/05/19 13:14:36;;;;;;;6.53;1.13;;;;;;;;;;5097472;28;20554;-42
2021/05/19 13:17:07;;;;;;;4.63;0.90;;;;;;;;;;5114982;28;20255;-42
2021/05/19 13:19:33;;;;;;;1.48;0.90;;;;;;;;;;5112394;28;20205;-42
2021/05/19 13:21:59;;;;;;;2.08;1.00;;;;;;;;;;5101724;28;20193;-42
2021/05/19 13:24:26;;;;;;;6.45;1.20;;;;;;;;;;5094702;28;20177;-41
2021/05/19 13:27:01;;;;;;;2.28;1.02;;;;;;;;;;5103603;28;20200;-42
2021/05/19 13:29:27;;;;;;;2.30;1.13;;;;;;;;;;5115243;28;20172;-42
2021/05/19 13:32:02;;;;;;;3.70;1.10;;;;;;;;;;5114307;28;20544;-42
2021/05/19 13:37:09;;;;;;;4.57;1.10;;;;;;;;;;5115073;28;20176;-42
2021/05/19 13:39:35;;;;;;;3.13;1.30;;;;;;;;;;5114919;28;20173;-42
2021/05/19 13:42:03;;;;;;;1.98;1.10;;;;;;;;;;5114187;28;20181;-42
2021/05/19 13:44:29;;;;;;;3.40;1.25;;;;;;;;;;5114771;28;20269;-42
2021/05/19 13:46:56;;;;;;;3.63;1.05;;;;;;;;;;5114809;28;20205;-42
2021/05/19 13:51:51;;;;;;;7.35;0.93;;;;;;;;;;5107246;28;20251;-42
2021/05/19 13:54:17;;;;;;;2.22;1.08;;;;;;;;;;5112270;28;20173;-42
2021/05/19 13:56:43;;;;;;;5.53;1.67;;;;;;;;;;5113992;28;20525;-42
2021/05/19 13:59:09;;;;;;;5.32;1.30;;;;;;;;;;5114371;28;20716;-42
2021/05/19 14:01:36;;;;;;;7.55;1.30;;;;;;;;;;5113847;28;20210;-41
2021/05/19 14:04:03;;;;;;;2.88;1.15;;;;;;;;;;5114237;28;20188;-41
2021/05/19 14:06:29;;;;;;;2.10;1.20;;;;;;;;;;5110421;28;20206;-41
2021/05/19 14:08:55;;;;;;;3.42;1.02;;;;;;;;;;5112719;28;20275;-42
2021/05/19 14:11:23;;;;;;;5.05;1.15;;;;;;;;;;5117499;28;20255;-42
2021/05/19 14:19:36;;;;;;;1.52;1.15;;;;;;;;;;5117379;28;20181;-42
2021/05/19 14:27:19;;;;;;;0.77;0.77;;;;;;;;;;5116998;28;20215;-42
2021/05/19 14:29:45;;;;;;;0.63;0.60;;;;;;;;;;5118331;28;20173;-42
2021/05/19 14:32:11;;;;;;;0.80;0.80;;;;;;;;;;5117751;28;20165;-42
2021/05/19 14:34:38;;;;;;;1.17;1.08;;;;;;;;;;5118191;28;20192;-42
2021/05/19 14:45:16;;;;;;;1.10;0.98;;;;;;;;;;5118034;28;20600;-42
2021/05/19 15:01:13;;;;;;;2.10;0.80;;;;;;;;;;5112412;28;20286;-42
2021/05/19 15:03:39;;;;;;;2.20;0.80;;;;;;;;;;5117574;28;20179;-42
2021/05/19 15:06:05;;;;;;;0.77;0.70;;;;;;;;;;5117397;28;20184;-42
2021/05/19 15:08:31;;;;;;;1.08;0.98;;;;;;;;;;5116691;28;20761;-42
2021/05/19 15:11:00;;;;;;;0.60;0.60;;;;;;;;;;5114742;28;20429;-42
2021/05/19 15:13:27;;;;;;;0.60;0.60;;;;;;;;;;5113853;28;20184;-42
2021/05/19 15:15:53;;;;;;;1.98;0.82;;;;;;;;;;5117085;28;20629;-42
2021/05/19 15:18:19;;;;;;;2.25;0.75;;;;;;;;;;5116966;28;20544;-42
2021/05/19 15:20:45;;;;;;;0.73;0.73;;;;;;;;;;5116502;28;20189;-42
2021/05/19 15:23:11;;;;;;;1.33;0.80;;;;;;;;;;5116388;28;20562;-42
2021/05/19 15:25:37;;;;;;;2.10;0.70;;;;;;;;;;5116717;28;20189;-42
2021/05/19 15:28:03;;;;;;;0.70;0.70;;;;;;;;;;5113267;28;20591;-42
2021/05/19 15:30:29;;;;;;;0.70;0.70;;;;;;;;;;5111326;28;20432;-42
2021/05/19 15:32:55;;;;;;;0.68;0.68;;;;;;;;;;5103236;28;20444;-42
2021/05/19 15:35:21;;;;;;;0.45;0.45;;;;;;;;;;5117268;28;20557;-41
2021/05/19 15:37:47;;;;;;;0.68;0.68;;;;;;;;;;5116873;28;20169;-41
2021/05/19 15:40:13;;;;;;;0.95;0.70;;;;;;;;;;5117129;28;20174;-42
2021/05/19 15:42:40;;;;;;;1.08;0.57;;;;;;;;;;5116178;28;20302;-42
2021/05/19 15:45:07;;;;;;;1.85;0.88;;;;;;;;;;5105147;28;20178;-42
2021/05/19 15:47:33;;;;;;;0.70;0.70;;;;;;;;;;5116515;28;20235;-42